Main page
METAR-TAF:

METAR-TAF

Airports :

Doctor Fernando Piragine Niveyro International Airport

Corrientes, Argentina

latitude: 27-27S, longitude: 058-46W, elevation: 62 m

Current weather observation

The report was made 47 minutes ago, at 07:00 UTC
Wind 2 kt from the Southeast
Temperature 3°C
Humidity 75%
Pressure 1027 hPa
Visibility 10 km or more
no clouds below 1500 m and no cumulonimbus

METAR: SARC 300700Z 14002KT CAVOK 03/M01 Q1027

Time: 04:47 (07:47 UTC)


TAF: missing

Weather observations and forecasts of more than 4000 airports (METAR and TAF reports).

The available stations are represented by yellow and red dots on the map.

Hover mouse over dot to see the name of the station.

Then click to see weather observations and forecasts.

To change the map : click on the green buttons with a black cross to zoom in, on the green button with a dash to zoom out, or on the green arrows for adjacent maps.


METAR-TAF: